Flight Track Log - Related Links

Times and Time Zones

All times are in EDT time to prevent confusion due to time zone crossing. See the JIA2267 flight status page for this flight to view local times or setup timezone preferences in your user account.

Time Position Orientation Groundspeed Altitude Reporting Facility
EDT Latitude Longitude Course Direction KTS MPH feet Rate Location/Type
Sat 05:36:46 AM 37.1206 -76.5114 226° Southwest 131 151 700  Level Washington Center
Sat 05:37:52 AM 37.0847 -76.5553 224° Southwest 185 213 3,800 2,373 Climbing Washington Center
Sat 05:39:00 AM 36.9361 -76.7179 226° Southwest  Level FlightAware Approximate
Sat 05:39:00 AM 37.0406 -76.6042 221° Southwest 196 226 6,000  Level Washington Center
Sat 05:39:59 AM 36.9900 -76.6658 224° Southwest 228 262 9,000 3,254 Climbing Washington Center
Sat 05:40:00 AM 36.8754 -76.7960 226° Southwest  Level FlightAware Approximate
Sat 05:40:58 AM 36.9392 -76.7300 225° Southwest 252 290 12,400  Level Washington Center
Sat 05:41:00 AM 36.8148 -76.8739 226° Southwest  Level FlightAware Approximate
Sat 05:41:57 AM 36.8864 -76.7942 224° Southwest 259 298 14,900  Level Washington Center
Sat 05:42:00 AM 36.7542 -76.9518 226° Southwest  Level FlightAware Approximate
Sat 05:42:59 AM 36.8317 -76.8633 225° Southwest 270 311 17,200  Level Washington Center
Sat 05:44:00 AM 36.7744 -76.9350 225° Southwest 282 325 18,900 1,729 Climbing Washington Center
Sat 05:44:57 AM 36.7172 -77.0092 226° Southwest 294 338 20,600 1,450 Climbing Washington Center
Sat 05:46:00 AM 36.6722 -77.1017 239° Southwest 304 350 21,800 1,650 Climbing Washington Center
Sat 05:46:57 AM 36.6272 -77.1967 239° Southwest 317 365 23,900 2,051 Climbing Washington Center
Sat 05:47:57 AM 36.5822 -77.2939 240° Southwest 323 372 25,800 1,050 Climbing Washington Center
Sat 05:48:57 AM 36.5325 -77.3989 240° Southwest 339 390 26,000 100 Climbing Washington Center
Sat 05:49:57 AM 36.4850 -77.5064 241° Southwest 349 402 26,000  Level Washington Center
Sat 05:50:57 AM 36.4333 -77.6108 238° Southwest 354 407 26,000  Level Washington Center
Sat 05:51:57 AM 36.3789 -77.7306 241° Southwest 354 407 26,000  Level Washington Center
Sat 05:52:59 AM 36.3292 -77.8375 240° Southwest 360 414 26,000  Level Washington Center
Sat 05:53:59 AM 36.2792 -77.9444 240° Southwest 360 414 26,000  Level Washington Center
Sat 05:54:57 AM 36.2289 -78.0483 239° Southwest 360 414 26,000  Level Washington Center
Sat 05:55:57 AM 36.1933 -78.1606 249° West 348 400 26,000  Level Washington Center
Sat 05:56:57 AM 36.1636 -78.2753 252° West 348 400 26,000  Level Washington Center
Sat 05:57:58 AM 36.1336 -78.3953 253° West 353 406 26,000  Level Washington Center
Sat 05:58:57 AM 36.1061 -78.5075 253° West 353 406 26,000 -450 Level Washington Center
Sat 05:59:58 AM 36.0781 -78.6219 253° West 353 406 25,100 -1,190 Descending Washington Center
Sat 06:00:58 AM 36.0461 -78.7339 251° West 353 406 23,600 -1,500 Descending Washington Center
Sat 06:01:58 AM 36.0203 -78.8381 253° West 353 406 22,100 -1,286 Descending Washington Center
Sat 06:03:46 AM 35.9667 -79.0333 251° West 326 375 20,000 -1,071 Descending Atlanta Center
Sat 06:04:46 AM 35.9394 -79.1375 252° West 326 375 19,100 -750 Descending Atlanta Center
Sat 06:05:46 AM 35.9394 -79.2403 270° West 313 360 18,500 -800 Descending Atlanta Center
Sat 06:06:46 AM 35.9431 -79.3322 273° West 296 341 17,500 -750 Descending Atlanta Center
Sat 06:07:46 AM 35.9489 -79.4319 274° West 291 335 17,000 -250 Descending Atlanta Center
Sat 06:08:46 AM 35.9692 -79.5283 285° West 291 335 17,000  Level Atlanta Center
Sat 06:09:46 AM 35.9914 -79.6247 286° West 281 323 17,000  Level Atlanta Center
Sat 06:10:46 AM 36.0133 -79.7133 287° West 276 318 17,000  Level Atlanta Center
Sat 06:11:46 AM 36.0333 -79.8047 285° West 276 318 17,000  Level Atlanta Center
Sat 06:12:46 AM 36.0531 -79.8936 285° West 276 318 17,000  Level Atlanta Center
Sat 06:13:46 AM 36.0703 -79.9722 285° West 276 318 17,000  Level Atlanta Center
Sat 06:14:46 AM 36.0897 -80.0561 286° West 271 312 17,000 -200 Level Atlanta Center
Sat 06:15:46 AM 36.0944 -80.1431 274° West 265 305 16,600 -700 Descending Atlanta Center
Sat 06:16:46 AM 36.0339 -80.2053 220° Southwest 240 276 15,600 -950 Descending Atlanta Center
Sat 06:17:46 AM 35.9650 -80.2725 218° Southwest 269 310 14,700 -875 Descending Atlanta Center
Sat 06:18:22 AM 35.9308 -80.3153 225° Southwest 286 329 14,200 -700 Descending Atlanta Center
Sat 06:18:46 AM 35.9106 -80.3339 217° Southwest 295 339 14,000 -818 Descending Atlanta Center
Sat 06:19:28 AM 35.8600 -80.3875 221° Southwest 286 329 13,300 -900 Descending Atlanta Center
Sat 06:19:46 AM 35.8436 -80.4011 214° Southwest 300 345 13,100 -885 Descending Atlanta Center
Sat 06:20:29 AM 35.8014 -80.4464 221° Southwest 283 326 12,400 -900 Descending Atlanta Center
Sat 06:20:46 AM 35.7828 -80.4600 211° Southwest 300 345 12,200 -984 Descending Atlanta Center
Sat 06:21:30 AM 35.7361 -80.5006 215° Southwest 276 318 11,400 -1,000 Descending Atlanta Center
Sat 06:21:46 AM 35.7178 -80.5167 216° Southwest 286 329 11,200 -982 Descending Atlanta Center
Sat 06:22:25 AM 35.6747 -80.5417 205° Southwest 269 310 10,500 -1,100 Descending Atlanta Center
Sat 06:22:46 AM 35.6478 -80.5478 190° South 276 318 10,100 -787 Descending Atlanta Center
Sat 06:23:26 AM 35.6019 -80.5550 187° South 263 303 9,700 -800 Descending Atlanta Center
Sat 06:23:46 AM 35.5792 -80.5583 187° South 265 305 9,300 -1,100 Descending Atlanta Center
Sat 06:24:26 AM 35.5378 -80.5678 191° South 224 258 8,600 -1,200 Descending Atlanta Center
Sat 06:24:46 AM 35.5169 -80.5714 188° South 245 282 8,100 -1,180 Descending Atlanta Center
Sat 06:25:27 AM 35.4797 -80.5831 194° South 210 242 7,400 -1,100 Descending Atlanta Center
Sat 06:25:46 AM 35.4656 -80.5989 222° Southwest 214 246 7,000 -1,279 Descending Atlanta Center
Sat 06:26:28 AM 35.4375 -80.6358 227° Southwest 194 223 6,100 -1,000 Descending Atlanta Center
Sat 06:26:46 AM 35.4272 -80.6489 226° Southwest 202 232 6,000 -295 Descending Atlanta Center
Sat 06:27:29 AM 35.4031 -80.6806 227° Southwest 185 213 5,800 -300 Descending Atlanta Center
Sat 06:27:46 AM 35.3972 -80.6911 236° Southwest 196 226 5,700 -787 Descending Atlanta Center
Sat 06:28:30 AM 35.3692 -80.7303 229° Southwest 180 207 5,000 -971 Descending Atlanta Center
Sat 06:29:31 AM 35.3369 -80.7775 230° Southwest 189 217 4,000 -984 Descending Atlanta Center

Login

Don't have an account? Register now (free) for customized features, flight alerts, and more!